createdAt,value
2022-08-12T03:02:32.274Z,23.50
2022-08-12T03:05:03.405Z,23.40
2022-08-12T03:07:56.188Z,23.30
2022-08-12T03:10:37.027Z,23.30
2022-08-12T03:13:08.096Z,23.30
2022-08-12T03:15:36.509Z,23.30
2022-08-12T03:18:25.686Z,23.30
2022-08-12T03:20:57.896Z,23.30
2022-08-12T03:23:30.272Z,23.30
2022-08-12T03:26:01.592Z,23.20
2022-08-12T03:28:49.177Z,23.20
2022-08-12T03:31:18.373Z,23.30
2022-08-12T03:34:00.984Z,23.30
2022-08-12T03:36:33.374Z,23.30
2022-08-12T03:39:16.845Z,23.30
2022-08-12T03:41:54.959Z,23.20
2022-08-12T03:44:49.983Z,23.20
2022-08-12T03:47:40.953Z,23.20
2022-08-12T03:50:28.130Z,23.10
2022-08-12T03:53:13.779Z,23.00
2022-08-12T03:55:59.428Z,22.90
2022-08-12T03:58:45.067Z,22.90
2022-08-12T04:01:13.871Z,22.90
2022-08-12T04:03:53.937Z,22.80
2022-08-12T04:06:35.351Z,22.80
2022-08-12T04:09:15.027Z,22.80
2022-08-12T04:12:14.242Z,22.80
2022-08-12T04:14:43.052Z,22.70
2022-08-12T04:17:11.902Z,22.80
2022-08-12T04:19:39.851Z,22.70
2022-08-12T04:22:09.911Z,22.70
2022-08-12T04:24:38.017Z,22.60
2022-08-12T04:27:10.195Z,22.60
2022-08-12T04:30:29.991Z,22.60
2022-08-12T04:32:27.326Z,22.70
2022-08-12T04:34:56.011Z,22.60
2022-08-12T04:37:25.222Z,22.60
2022-08-12T04:39:53.965Z,22.60
2022-08-12T04:42:22.155Z,22.70
2022-08-12T04:44:50.024Z,22.60
2022-08-12T04:47:18.113Z,22.60
2022-08-12T04:49:49.173Z,22.70
2022-08-12T04:52:17.157Z,22.70
2022-08-12T04:54:47.609Z,22.70
2022-08-12T04:57:15.979Z,22.80
2022-08-12T04:59:47.936Z,22.80
2022-08-12T05:02:21.226Z,22.80
2022-08-12T05:04:52.017Z,22.80
2022-08-12T05:07:20.499Z,22.80
2022-08-12T05:10:01.103Z,22.80
2022-08-12T05:12:36.341Z,22.80
2022-08-12T05:15:27.528Z,22.90
2022-08-12T05:17:55.449Z,22.90
2022-08-12T05:20:25.975Z,22.90
2022-08-12T05:23:12.406Z,23.00
2022-08-12T05:25:43.577Z,23.10
2022-08-12T05:28:12.911Z,23.00
2022-08-12T05:30:42.510Z,23.00
2022-08-12T05:33:11.995Z,22.90
2022-08-12T05:35:42.980Z,23.00
2022-08-12T05:38:29.904Z,23.00
2022-08-12T05:40:59.262Z,23.10
2022-08-12T05:43:27.430Z,23.00
2022-08-12T05:45:55.376Z,23.00
2022-08-12T05:48:24.376Z,23.00
2022-08-12T05:50:52.918Z,23.00
2022-08-12T05:53:20.789Z,23.00
2022-08-12T05:55:48.674Z,23.10
2022-08-12T05:58:18.369Z,23.10
2022-08-12T06:00:46.284Z,23.20
2022-08-12T06:03:17.519Z,23.20
2022-08-12T06:05:55.704Z,23.20
2022-08-12T06:08:24.834Z,23.20
2022-08-12T06:10:53.698Z,23.20
2022-08-12T06:13:25.734Z,23.30
2022-08-12T06:16:12.322Z,23.40
2022-08-12T06:18:40.335Z,23.50
2022-08-12T06:21:09.107Z,23.50
2022-08-12T06:23:41.990Z,23.60
2022-08-12T06:26:12.857Z,23.70
2022-08-12T06:28:42.886Z,23.70
2022-08-12T06:31:26.870Z,23.80
2022-08-12T06:33:59.808Z,24.00
2022-08-12T06:36:44.239Z,24.00
2022-08-12T06:39:14.617Z,24.10
2022-08-12T06:42:04.987Z,24.10
2022-08-12T06:44:51.292Z,24.20
2022-08-12T06:47:19.687Z,24.30
2022-08-12T06:49:48.517Z,24.40
2022-08-12T06:52:17.182Z,24.50
2022-08-12T06:54:45.716Z,24.50
2022-08-12T06:57:59.725Z,24.60
2022-08-12T07:00:02.917Z,24.70
2022-08-12T07:02:38.419Z,24.70
2022-08-12T07:05:06.919Z,24.80
2022-08-12T07:07:38.828Z,24.80
2022-08-12T07:10:08.543Z,24.90
2022-08-12T07:12:36.963Z,24.90
2022-08-12T07:15:07.496Z,24.90
2022-08-12T07:17:37.467Z,24.90
2022-08-12T07:20:06.975Z,25.00
2022-08-12T07:22:34.983Z,25.10
2022-08-12T07:25:20.388Z,25.10
2022-08-12T07:27:49.382Z,25.10
2022-08-12T07:30:18.683Z,25.20
2022-08-12T07:32:49.660Z,25.30
2022-08-12T07:35:19.538Z,25.30
2022-08-12T07:37:50.138Z,25.30
2022-08-12T07:40:18.706Z,25.30
2022-08-12T07:42:47.083Z,25.30
2022-08-12T07:45:15.318Z,25.40
2022-08-12T07:47:44.817Z,25.40
2022-08-12T07:50:13.892Z,25.50
2022-08-12T07:52:44.218Z,25.50
2022-08-12T07:55:13.360Z,25.50
2022-08-12T07:57:52.010Z,25.50
2022-08-12T08:00:20.382Z,25.50
2022-08-12T08:02:50.380Z,25.50
2022-08-12T08:05:19.545Z,25.60
2022-08-12T08:07:47.882Z,25.60
2022-08-12T08:10:16.593Z,25.60
2022-08-12T08:12:58.078Z,25.60
2022-08-12T08:15:51.187Z,25.70
2022-08-12T08:18:26.687Z,25.80
2022-08-12T08:20:57.021Z,25.80
2022-08-12T08:23:46.911Z,25.80
2022-08-12T08:26:24.745Z,25.90
2022-08-12T08:28:52.998Z,26.00
2022-08-12T08:31:21.544Z,26.00
2022-08-12T08:34:05.250Z,26.10
2022-08-12T08:36:39.555Z,26.10
2022-08-12T08:39:07.827Z,26.10
2022-08-12T08:42:17.087Z,26.10
2022-08-12T08:44:42.075Z,26.10
2022-08-12T08:47:13.013Z,26.10
2022-08-12T08:49:42.476Z,26.10
2022-08-12T08:52:11.905Z,26.20
2022-08-12T08:54:40.486Z,26.30
2022-08-12T08:57:09.368Z,26.30
2022-08-12T08:59:37.504Z,26.20
2022-08-12T09:02:07.522Z,26.30
2022-08-12T09:05:12.524Z,26.40
2022-08-12T09:07:51.957Z,26.40
2022-08-12T09:10:30.972Z,26.50
2022-08-12T09:13:22.978Z,26.50
2022-08-12T09:15:56.002Z,26.60
2022-08-12T09:18:26.635Z,26.60
2022-08-12T09:21:02.142Z,26.60
2022-08-12T09:23:59.488Z,26.70
2022-08-12T09:26:22.730Z,26.70
2022-08-12T09:28:56.633Z,26.80
2022-08-12T09:32:02.682Z,26.80
2022-08-12T09:34:28.503Z,26.80
2022-08-12T09:37:03.039Z,26.80
2022-08-12T09:40:05.846Z,26.90
2022-08-12T09:43:15.112Z,26.90
2022-08-12T09:46:11.851Z,27.00
2022-08-12T09:48:35.055Z,27.00
2022-08-12T09:51:10.998Z,27.00
2022-08-12T09:54:06.018Z,27.00
2022-08-12T09:56:59.259Z,27.10
2022-08-12T10:00:15.482Z,27.10
2022-08-12T10:02:44.049Z,27.20
2022-08-12T10:05:04.299Z,27.40
2022-08-12T10:07:40.434Z,27.50
2022-08-12T10:10:24.762Z,27.70
2022-08-12T10:13:20.548Z,27.90
2022-08-12T10:16:04.795Z,28.20
2022-08-12T10:18:37.254Z,28.40
2022-08-12T10:21:23.372Z,28.50
2022-08-12T10:23:56.829Z,28.80
2022-08-12T10:26:44.760Z,29.00
2022-08-12T10:30:39.037Z,29.20
2022-08-12T10:32:43.831Z,29.40
2022-08-12T10:35:10.066Z,29.50
2022-08-12T10:38:33.324Z,29.60
2022-08-12T10:40:31.875Z,29.60
2022-08-12T10:43:18.799Z,29.70
2022-08-12T10:45:49.172Z,29.80
2022-08-12T10:48:33.369Z,29.90
2022-08-12T10:52:03.901Z,30.00
2022-08-12T10:53:52.917Z,30.10
2022-08-12T10:56:22.150Z,30.20
2022-08-12T10:58:51.989Z,30.10
2022-08-12T11:03:01.552Z,30.10
2022-08-12T11:04:23.364Z,30.10
2022-08-12T11:07:06.489Z,30.10
2022-08-12T11:10:00.444Z,30.20
2022-08-12T11:12:55.111Z,30.20
2022-08-12T11:15:32.625Z,30.50
2022-08-12T11:18:12.029Z,30.60
2022-08-12T11:20:48.999Z,30.90
2022-08-12T11:23:25.866Z,31.20
2022-08-12T11:26:07.270Z,31.40
2022-08-12T11:28:36.947Z,31.80
2022-08-12T11:31:12.155Z,32.00
2022-08-12T11:34:06.867Z,32.30
2022-08-12T11:36:32.002Z,32.20
2022-08-12T11:39:04.276Z,32.50
2022-08-12T11:41:34.547Z,32.70
2022-08-12T11:44:35.510Z,33.10
2022-08-12T11:46:53.017Z,33.20
2022-08-12T11:49:32.040Z,33.60
2022-08-12T11:52:02.722Z,34.10
2022-08-12T11:54:31.341Z,34.30
2022-08-12T11:57:00.559Z,34.80
2022-08-12T12:02:20.649Z,35.30
2022-08-12T12:04:52.962Z,35.80
2022-08-12T12:08:36.134Z,36.20
2022-08-12T12:10:12.600Z,36.10
2022-08-12T12:12:41.416Z,36.10
2022-08-12T12:15:25.470Z,36.30
2022-08-12T12:18:05.189Z,36.20
2022-08-12T12:20:35.577Z,36.90
2022-08-12T12:23:04.290Z,37.40
2022-08-12T12:26:07.012Z,37.60
2022-08-12T12:28:36.832Z,38.20
2022-08-12T12:31:15.029Z,38.60
2022-08-12T12:33:57.701Z,39.10
2022-08-12T12:36:30.101Z,39.20
2022-08-12T12:39:00.116Z,39.20
2022-08-12T12:42:40.579Z,39.10
2022-08-12T12:44:25.913Z,39.50
2022-08-12T12:47:26.076Z,40.10
2022-08-12T12:49:55.197Z,40.90
2022-08-12T12:52:26.914Z,40.80
2022-08-12T12:54:58.485Z,40.30
2022-08-12T12:57:36.201Z,40.50
2022-08-12T13:00:15.810Z,40.50
2022-08-12T13:02:46.048Z,40.60
2022-08-12T13:05:27.919Z,40.60
2022-08-12T13:08:01.075Z,40.10
2022-08-12T13:10:36.535Z,38.60
2022-08-12T13:14:07.448Z,37.30
2022-08-12T13:15:59.230Z,36.30
2022-08-12T13:18:31.422Z,35.70
2022-08-12T13:20:59.882Z,35.50
2022-08-12T13:23:36.001Z,35.70
2022-08-12T13:26:07.643Z,36.40
2022-08-12T13:28:45.629Z,38.00
2022-08-12T13:31:24.924Z,39.50
2022-08-12T13:34:33.695Z,40.90
2022-08-12T13:36:42.132Z,41.50
2022-08-12T13:39:11.790Z,41.50
2022-08-12T13:41:39.747Z,42.20
2022-08-12T13:44:10.466Z,42.70
2022-08-12T13:46:40.789Z,43.40
2022-08-12T13:49:11.507Z,43.90
2022-08-12T13:51:52.791Z,43.50
2022-08-12T13:54:23.765Z,43.60
2022-08-12T13:56:52.331Z,43.50
2022-08-12T13:59:24.491Z,43.70
2022-08-12T14:01:56.757Z,44.10
2022-08-12T14:04:24.965Z,44.40
2022-08-12T14:06:53.914Z,45.10
2022-08-12T14:09:23.089Z,45.20
2022-08-12T14:11:58.687Z,45.80
2022-08-12T14:14:31.792Z,45.90
2022-08-12T14:17:10.285Z,46.10
2022-08-12T14:20:00.622Z,45.70
2022-08-12T14:22:28.903Z,45.60
2022-08-12T14:25:01.220Z,45.40
2022-08-12T14:28:03.359Z,45.20
2022-08-12T14:30:29.031Z,44.60
2022-08-12T14:32:57.990Z,43.80
2022-08-12T14:35:26.919Z,43.70
2022-08-12T14:37:56.541Z,42.70
2022-08-12T14:40:29.612Z,42.20
2022-08-12T14:42:58.958Z,41.80
2022-08-12T14:45:44.549Z,42.20
2022-08-12T14:48:19.164Z,42.90
2022-08-12T14:51:02.821Z,44.00
2022-08-12T14:55:24.664Z,44.70
2022-08-12T14:59:57.217Z,45.70
2022-08-12T15:02:20.908Z,46.50
2022-08-12T15:04:52.233Z,46.40
2022-08-12T15:07:34.205Z,46.10
2022-08-12T15:10:09.254Z,45.50
2022-08-12T15:12:40.480Z,44.20
2022-08-12T15:15:10.527Z,44.20
2022-08-12T15:17:40.318Z,44.30
2022-08-12T15:20:33.261Z,45.30
2022-08-12T15:22:57.974Z,45.40
2022-08-12T15:25:26.036Z,45.50
2022-08-12T15:28:10.986Z,45.80
2022-08-12T15:30:45.002Z,45.60
2022-08-12T15:33:18.751Z,46.10
2022-08-12T15:35:52.230Z,45.70
2022-08-12T15:38:24.868Z,45.00
2022-08-12T15:40:55.111Z,43.50
2022-08-12T15:43:51.729Z,41.80
2022-08-12T15:46:15.434Z,40.50
2022-08-12T15:48:46.842Z,39.40
2022-08-12T15:51:58.449Z,38.60
2022-08-12T15:54:33.961Z,37.90
2022-08-12T15:57:08.272Z,37.20
2022-08-12T16:00:00.527Z,36.80
2022-08-12T16:02:26.710Z,36.40
2022-08-12T16:04:55.399Z,35.70
2022-08-12T16:07:26.027Z,35.40
2022-08-12T16:10:06.781Z,35.30
2022-08-12T16:12:43.348Z,35.00
2022-08-12T16:15:14.696Z,34.60
2022-08-12T16:18:18.402Z,34.40
2022-08-12T16:20:34.757Z,34.10
2022-08-12T16:23:26.788Z,33.80
2022-08-12T16:26:06.315Z,33.70
2022-08-12T16:28:56.371Z,33.60
2022-08-12T16:31:25.958Z,33.60
2022-08-12T16:34:00.857Z,33.70
2022-08-12T16:36:30.273Z,33.60
2022-08-12T16:39:01.308Z,33.60
2022-08-12T16:41:39.902Z,33.60
2022-08-12T16:44:08.843Z,33.50
2022-08-12T16:46:38.395Z,33.30
2022-08-12T16:49:13.067Z,33.20
2022-08-12T16:51:46.729Z,33.10
2022-08-12T16:54:16.171Z,33.10
2022-08-12T16:56:54.684Z,33.00
2022-08-12T16:59:52.847Z,32.90
2022-08-12T17:02:31.867Z,32.90
2022-08-12T17:05:04.144Z,32.90
2022-08-12T17:07:36.849Z,32.90
2022-08-12T17:10:07.221Z,32.90
2022-08-12T17:12:37.663Z,32.90
2022-08-12T17:15:21.458Z,32.90
2022-08-12T17:18:38.924Z,32.70
2022-08-12T17:20:48.902Z,32.50
2022-08-12T17:23:20.484Z,32.40
2022-08-12T17:25:51.773Z,32.30
2022-08-12T17:28:22.724Z,32.20
2022-08-12T17:30:57.331Z,32.10
2022-08-12T17:33:33.497Z,31.90
2022-08-12T17:36:05.378Z,31.90
2022-08-12T17:38:34.623Z,31.80
2022-08-12T17:41:22.235Z,31.80
2022-08-12T17:43:58.389Z,31.70
2022-08-12T17:46:33.414Z,31.60
2022-08-12T17:49:19.073Z,31.60
2022-08-12T17:52:01.951Z,31.60
2022-08-12T17:54:32.815Z,31.40
2022-08-12T17:57:02.420Z,31.40
2022-08-12T17:59:48.822Z,31.40
2022-08-12T18:02:25.475Z,31.30
2022-08-12T18:05:04.484Z,31.20
2022-08-12T18:07:35.769Z,31.00
2022-08-12T18:10:05.578Z,31.00
2022-08-12T18:12:42.399Z,31.00
2022-08-12T18:15:26.057Z,30.90
2022-08-12T18:18:16.870Z,30.70
2022-08-12T18:20:46.890Z,30.60
2022-08-12T18:23:14.805Z,30.60
2022-08-12T18:26:15.089Z,30.60
2022-08-12T18:28:48.342Z,30.60
2022-08-12T18:31:18.159Z,30.60
2022-08-12T18:33:47.671Z,30.50
2022-08-12T18:36:22.373Z,30.50
2022-08-12T18:38:55.925Z,30.50
2022-08-12T18:41:33.674Z,30.40
2022-08-12T18:44:05.165Z,30.40
2022-08-12T18:46:48.841Z,30.30
2022-08-12T18:49:29.766Z,30.30
2022-08-12T18:52:04.380Z,30.30
2022-08-12T18:54:36.261Z,30.20
2022-08-12T18:57:15.503Z,30.20
2022-08-12T19:00:01.780Z,30.20
2022-08-12T19:02:39.933Z,30.10
2022-08-12T19:05:10.439Z,30.00
2022-08-12T19:07:50.017Z,29.90
2022-08-12T19:10:29.696Z,29.80
2022-08-12T19:13:24.384Z,29.70
2022-08-12T19:15:54.396Z,29.60
2022-08-12T19:18:24.281Z,29.50
2022-08-12T19:20:52.280Z,29.40
2022-08-12T19:23:22.194Z,29.20
2022-08-12T19:26:01.134Z,29.10
2022-08-12T19:28:35.002Z,29.00
2022-08-12T19:31:56.826Z,28.90
2022-08-12T19:35:06.642Z,28.70
2022-08-12T19:37:20.383Z,28.60
2022-08-12T19:40:09.976Z,28.60
2022-08-12T19:42:44.837Z,28.50
2022-08-12T19:45:17.190Z,28.40
2022-08-12T19:47:46.590Z,28.20
2022-08-12T19:50:20.027Z,28.20
2022-08-12T19:52:53.077Z,28.10
2022-08-12T19:55:27.199Z,28.10
2022-08-12T19:58:01.414Z,28.00
2022-08-12T20:00:35.315Z,28.00
2022-08-12T20:03:07.553Z,27.90
2022-08-12T20:06:05.390Z,27.90
2022-08-12T20:08:32.978Z,27.90
2022-08-12T20:12:09.542Z,27.70
2022-08-12T20:14:01.075Z,27.70
2022-08-12T20:16:57.747Z,27.60
2022-08-12T20:19:52.838Z,27.60
2022-08-12T20:22:24.854Z,27.50
2022-08-12T20:25:01.415Z,27.40
2022-08-12T20:28:02.600Z,27.30
2022-08-12T20:30:53.076Z,27.20
2022-08-12T20:33:17.377Z,27.10
2022-08-12T20:36:13.862Z,27.10
2022-08-12T20:38:39.337Z,27.10
2022-08-12T20:41:17.820Z,27.00
2022-08-12T20:43:50.432Z,26.90
2022-08-12T20:46:19.411Z,26.90
2022-08-12T20:48:55.172Z,26.80
2022-08-12T20:51:27.575Z,26.70
2022-08-12T20:53:59.279Z,26.70
2022-08-12T20:56:34.232Z,26.70
2022-08-12T20:59:06.675Z,26.60
2022-08-12T21:01:46.902Z,26.70
2022-08-12T21:04:35.884Z,26.60
2022-08-12T21:07:09.125Z,26.60
2022-08-12T21:09:41.753Z,26.50
2022-08-12T21:12:28.596Z,26.40
2022-08-12T21:15:16.614Z,26.30
2022-08-12T21:18:01.254Z,26.30
2022-08-12T21:20:34.739Z,26.20
2022-08-12T21:23:04.290Z,26.20
2022-08-12T21:25:44.108Z,26.20
2022-08-12T21:28:12.945Z,26.10
2022-08-12T21:31:11.245Z,26.00
2022-08-12T21:33:31.623Z,26.00
2022-08-12T21:36:02.532Z,26.00
2022-08-12T21:38:34.816Z,25.90
2022-08-12T21:41:06.789Z,25.90
2022-08-12T21:43:44.521Z,25.80
2022-08-12T21:46:34.530Z,25.80
2022-08-12T21:49:05.443Z,25.80
2022-08-12T21:51:49.072Z,25.70
2022-08-12T21:54:21.670Z,25.70
2022-08-12T21:56:50.264Z,25.70
2022-08-12T21:59:19.982Z,25.60
